sensor_id;sensor_type;location;lat;lon;timestamp;temperature;humidity
13296;DHT22;6716;51.086;-0.302;2022-10-26T00:00:48;9.10;99.90
13296;DHT22;6716;51.086;-0.302;2022-10-26T00:03:14;9.20;99.90
13296;DHT22;6716;51.086;-0.302;2022-10-26T00:05:41;9.20;99.90
13296;DHT22;6716;51.086;-0.302;2022-10-26T00:08:07;9.60;99.90
13296;DHT22;6716;51.086;-0.302;2022-10-26T00:10:34;9.10;99.90
13296;DHT22;6716;51.086;-0.302;2022-10-26T00:13:00;9.10;99.90
13296;DHT22;6716;51.086;-0.302;2022-10-26T00:15:27;9.10;99.90
13296;DHT22;6716;51.086;-0.302;2022-10-26T00:17:52;9.00;99.90
13296;DHT22;6716;51.086;-0.302;2022-10-26T00:20:19;9.00;99.90
13296;DHT22;6716;51.086;-0.302;2022-10-26T00:22:45;9.10;99.90
13296;DHT22;6716;51.086;-0.302;2022-10-26T00:25:11;9.10;99.90
13296;DHT22;6716;51.086;-0.302;2022-10-26T00:27:37;9.20;99.90
13296;DHT22;6716;51.086;-0.302;2022-10-26T00:30:04;9.30;99.90
13296;DHT22;6716;51.086;-0.302;2022-10-26T00:32:31;9.40;99.90
13296;DHT22;6716;51.086;-0.302;2022-10-26T00:34:57;9.40;99.90
13296;DHT22;6716;51.086;-0.302;2022-10-26T00:37:23;9.30;99.90
13296;DHT22;6716;51.086;-0.302;2022-10-26T00:39:49;9.40;99.90
13296;DHT22;6716;51.086;-0.302;2022-10-26T00:42:20;9.50;99.90
13296;DHT22;6716;51.086;-0.302;2022-10-26T00:47:18;9.50;99.90
13296;DHT22;6716;51.086;-0.302;2022-10-26T00:49:47;9.30;99.90
13296;DHT22;6716;51.086;-0.302;2022-10-26T00:52:14;9.40;99.90
13296;DHT22;6716;51.086;-0.302;2022-10-26T00:54:42;9.50;99.90
13296;DHT22;6716;51.086;-0.302;2022-10-26T00:57:08;9.40;99.90
13296;DHT22;6716;51.086;-0.302;2022-10-26T00:59:34;7.80;99.90
13296;DHT22;6716;51.086;-0.302;2022-10-26T01:02:00;9.40;99.90
13296;DHT22;6716;51.086;-0.302;2022-10-26T01:04:26;9.50;99.90
13296;DHT22;6716;51.086;-0.302;2022-10-26T01:06:53;9.50;99.90
13296;DHT22;6716;51.086;-0.302;2022-10-26T01:09:19;9.40;99.90
13296;DHT22;6716;51.086;-0.302;2022-10-26T01:11:46;9.40;99.90
13296;DHT22;6716;51.086;-0.302;2022-10-26T01:14:13;9.30;99.90
13296;DHT22;6716;51.086;-0.302;2022-10-26T01:19:32;9.40;99.90
13296;DHT22;6716;51.086;-0.302;2022-10-26T01:22:25;9.40;99.90
13296;DHT22;6716;51.086;-0.302;2022-10-26T01:27:35;9.40;99.90
13296;DHT22;6716;51.086;-0.302;2022-10-26T01:30:25;9.50;99.90
13296;DHT22;6716;51.086;-0.302;2022-10-26T01:35:53;9.50;99.90
13296;DHT22;6716;51.086;-0.302;2022-10-26T01:38:38;9.50;99.90
13296;DHT22;6716;51.086;-0.302;2022-10-26T01:41:15;9.50;99.90
13296;DHT22;6716;51.086;-0.302;2022-10-26T01:44:00;9.50;99.90
13296;DHT22;6716;51.086;-0.302;2022-10-26T01:46:38;9.60;99.90
13296;DHT22;6716;51.086;-0.302;2022-10-26T01:49:10;7.50;99.90
13296;DHT22;6716;51.086;-0.302;2022-10-26T01:51:42;9.50;99.90
13296;DHT22;6716;51.086;-0.302;2022-10-26T01:54:09;9.60;99.90
13296;DHT22;6716;51.086;-0.302;2022-10-26T01:56:40;9.70;99.90
13296;DHT22;6716;51.086;-0.302;2022-10-26T02:07:54;9.50;99.90
13296;DHT22;6716;51.086;-0.302;2022-10-26T02:18:45;9.80;99.90
13296;DHT22;6716;51.086;-0.302;2022-10-26T02:21:17;9.90;99.90
13296;DHT22;6716;51.086;-0.302;2022-10-26T02:23:45;9.90;99.90
13296;DHT22;6716;51.086;-0.302;2022-10-26T02:26:14;9.90;99.90
13296;DHT22;6716;51.086;-0.302;2022-10-26T02:28:46;9.90;99.90
13296;DHT22;6716;51.086;-0.302;2022-10-26T02:31:14;9.90;99.90
13296;DHT22;6716;51.086;-0.302;2022-10-26T02:33:48;9.90;99.90
13296;DHT22;6716;51.086;-0.302;2022-10-26T02:36:21;10.60;99.90
13296;DHT22;6716;51.086;-0.302;2022-10-26T02:38:48;9.90;99.90
13296;DHT22;6716;51.086;-0.302;2022-10-26T02:41:17;9.80;99.90
13296;DHT22;6716;51.086;-0.302;2022-10-26T02:43:49;9.90;99.90
13296;DHT22;6716;51.086;-0.302;2022-10-26T02:46:20;10.00;99.90
13296;DHT22;6716;51.086;-0.302;2022-10-26T02:48:47;10.00;99.90
13296;DHT22;6716;51.086;-0.302;2022-10-26T02:56:35;10.00;99.90
13296;DHT22;6716;51.086;-0.302;2022-10-26T02:59:04;10.10;99.90
13296;DHT22;6716;51.086;-0.302;2022-10-26T03:01:33;10.10;99.90
13296;DHT22;6716;51.086;-0.302;2022-10-26T03:03:59;10.10;99.90
13296;DHT22;6716;51.086;-0.302;2022-10-26T03:06:25;10.20;99.90
13296;DHT22;6716;51.086;-0.302;2022-10-26T03:08:51;10.10;99.90
13296;DHT22;6716;51.086;-0.302;2022-10-26T03:11:20;10.10;99.90
13296;DHT22;6716;51.086;-0.302;2022-10-26T03:13:46;10.20;99.90
13296;DHT22;6716;51.086;-0.302;2022-10-26T03:16:12;10.20;99.90
13296;DHT22;6716;51.086;-0.302;2022-10-26T03:18:38;10.20;99.90
13296;DHT22;6716;51.086;-0.302;2022-10-26T03:21:04;10.20;99.90
13296;DHT22;6716;51.086;-0.302;2022-10-26T03:23:30;10.30;99.90
13296;DHT22;6716;51.086;-0.302;2022-10-26T03:25:59;10.20;99.90
13296;DHT22;6716;51.086;-0.302;2022-10-26T03:28:25;10.30;99.90
13296;DHT22;6716;51.086;-0.302;2022-10-26T03:30:51;10.40;99.90
13296;DHT22;6716;51.086;-0.302;2022-10-26T03:33:17;10.40;99.90
13296;DHT22;6716;51.086;-0.302;2022-10-26T03:35:43;10.50;99.90
13296;DHT22;6716;51.086;-0.302;2022-10-26T03:38:09;10.40;99.90
13296;DHT22;6716;51.086;-0.302;2022-10-26T03:40:35;10.50;99.90
13296;DHT22;6716;51.086;-0.302;2022-10-26T03:43:02;10.50;99.90
13296;DHT22;6716;51.086;-0.302;2022-10-26T03:45:31;10.70;99.90
13296;DHT22;6716;51.086;-0.302;2022-10-26T03:47:57;10.30;99.90
13296;DHT22;6716;51.086;-0.302;2022-10-26T03:50:23;10.60;99.90
13296;DHT22;6716;51.086;-0.302;2022-10-26T03:52:49;10.60;99.90
13296;DHT22;6716;51.086;-0.302;2022-10-26T03:55:15;10.70;99.90
13296;DHT22;6716;51.086;-0.302;2022-10-26T03:57:42;10.70;99.90
13296;DHT22;6716;51.086;-0.302;2022-10-26T04:00:13;10.40;99.90
13296;DHT22;6716;51.086;-0.302;2022-10-26T04:02:43;10.70;99.90
13296;DHT22;6716;51.086;-0.302;2022-10-26T04:05:13;10.70;99.90
13296;DHT22;6716;51.086;-0.302;2022-10-26T04:07:41;10.80;99.90
13296;DHT22;6716;51.086;-0.302;2022-10-26T04:10:08;10.70;99.90
13296;DHT22;6716;51.086;-0.302;2022-10-26T04:12:37;9.60;99.90
13296;DHT22;6716;51.086;-0.302;2022-10-26T04:15:04;10.80;99.90
13296;DHT22;6716;51.086;-0.302;2022-10-26T04:17:31;10.10;99.90
13296;DHT22;6716;51.086;-0.302;2022-10-26T04:19:57;10.80;99.90
13296;DHT22;6716;51.086;-0.302;2022-10-26T04:22:29;10.70;99.90
13296;DHT22;6716;51.086;-0.302;2022-10-26T04:24:55;10.80;99.90
13296;DHT22;6716;51.086;-0.302;2022-10-26T04:27:21;10.80;99.90
13296;DHT22;6716;51.086;-0.302;2022-10-26T04:29:47;10.80;99.90
13296;DHT22;6716;51.086;-0.302;2022-10-26T04:32:12;10.80;99.90
13296;DHT22;6716;51.086;-0.302;2022-10-26T04:34:38;10.80;99.90
13296;DHT22;6716;51.086;-0.302;2022-10-26T04:37:04;10.80;99.90
13296;DHT22;6716;51.086;-0.302;2022-10-26T04:39:30;10.80;99.90
13296;DHT22;6716;51.086;-0.302;2022-10-26T04:41:56;10.70;99.90
13296;DHT22;6716;51.086;-0.302;2022-10-26T04:44:25;10.80;99.90
13296;DHT22;6716;51.086;-0.302;2022-10-26T04:46:51;10.70;99.90
13296;DHT22;6716;51.086;-0.302;2022-10-26T04:49:17;10.60;99.90
13296;DHT22;6716;51.086;-0.302;2022-10-26T04:51:43;10.80;99.90
13296;DHT22;6716;51.086;-0.302;2022-10-26T04:54:08;10.80;99.90
13296;DHT22;6716;51.086;-0.302;2022-10-26T04:56:34;10.80;99.90
13296;DHT22;6716;51.086;-0.302;2022-10-26T04:59:00;9.80;99.90
13296;DHT22;6716;51.086;-0.302;2022-10-26T05:01:26;10.70;99.90
13296;DHT22;6716;51.086;-0.302;2022-10-26T05:03:52;10.70;99.90
13296;DHT22;6716;51.086;-0.302;2022-10-26T05:06:20;10.80;99.90
13296;DHT22;6716;51.086;-0.302;2022-10-26T05:08:46;10.80;99.90
13296;DHT22;6716;51.086;-0.302;2022-10-26T05:11:12;10.80;99.90
13296;DHT22;6716;51.086;-0.302;2022-10-26T05:13:38;10.80;99.90
13296;DHT22;6716;51.086;-0.302;2022-10-26T05:16:04;10.90;99.90
13296;DHT22;6716;51.086;-0.302;2022-10-26T05:18:30;10.90;99.90
13296;DHT22;6716;51.086;-0.302;2022-10-26T05:20:55;10.90;99.90
13296;DHT22;6716;51.086;-0.302;2022-10-26T05:23:22;10.90;99.90
13296;DHT22;6716;51.086;-0.302;2022-10-26T05:25:51;10.80;99.90
13296;DHT22;6716;51.086;-0.302;2022-10-26T05:28:17;10.80;99.90
13296;DHT22;6716;51.086;-0.302;2022-10-26T05:30:44;10.80;99.90
13296;DHT22;6716;51.086;-0.302;2022-10-26T05:33:11;9.30;99.90
13296;DHT22;6716;51.086;-0.302;2022-10-26T05:35:38;10.80;99.90
13296;DHT22;6716;51.086;-0.302;2022-10-26T05:38:15;10.80;99.90
13296;DHT22;6716;51.086;-0.302;2022-10-26T05:40:52;10.80;99.90
13296;DHT22;6716;51.086;-0.302;2022-10-26T05:43:20;10.90;99.90
13296;DHT22;6716;51.086;-0.302;2022-10-26T05:45:46;10.90;99.90
13296;DHT22;6716;51.086;-0.302;2022-10-26T05:48:14;10.90;99.90
13296;DHT22;6716;51.086;-0.302;2022-10-26T05:50:40;10.80;99.90
13296;DHT22;6716;51.086;-0.302;2022-10-26T05:53:05;10.90;99.90
13296;DHT22;6716;51.086;-0.302;2022-10-26T05:55:32;10.80;99.90
13296;DHT22;6716;51.086;-0.302;2022-10-26T05:57:58;10.90;99.90
13296;DHT22;6716;51.086;-0.302;2022-10-26T06:00:26;10.90;99.90
13296;DHT22;6716;51.086;-0.302;2022-10-26T06:03:12;10.90;99.90
13296;DHT22;6716;51.086;-0.302;2022-10-26T06:05:51;10.90;99.90
13296;DHT22;6716;51.086;-0.302;2022-10-26T06:08:19;10.90;99.90
13296;DHT22;6716;51.086;-0.302;2022-10-26T06:10:46;10.90;99.90
13296;DHT22;6716;51.086;-0.302;2022-10-26T06:13:12;10.90;99.90
13296;DHT22;6716;51.086;-0.302;2022-10-26T06:24:43;11.00;99.90
13296;DHT22;6716;51.086;-0.302;2022-10-26T06:30:05;11.00;99.90
13296;DHT22;6716;51.086;-0.302;2022-10-26T06:32:32;11.00;99.90
13296;DHT22;6716;51.086;-0.302;2022-10-26T06:37:50;10.90;99.90
13296;DHT22;6716;51.086;-0.302;2022-10-26T06:40:18;11.00;99.90
13296;DHT22;6716;51.086;-0.302;2022-10-26T06:42:44;11.00;99.90
13296;DHT22;6716;51.086;-0.302;2022-10-26T06:45:12;11.00;99.90
13296;DHT22;6716;51.086;-0.302;2022-10-26T06:47:52;10.90;99.90
13296;DHT22;6716;51.086;-0.302;2022-10-26T06:50:36;11.00;99.90
13296;DHT22;6716;51.086;-0.302;2022-10-26T06:55:46;11.00;99.90
13296;DHT22;6716;51.086;-0.302;2022-10-26T06:58:18;11.00;99.90
13296;DHT22;6716;51.086;-0.302;2022-10-26T07:00:49;11.00;99.90
13296;DHT22;6716;51.086;-0.302;2022-10-26T07:03:15;10.90;99.90
13296;DHT22;6716;51.086;-0.302;2022-10-26T07:05:42;11.10;99.90
13296;DHT22;6716;51.086;-0.302;2022-10-26T07:08:09;11.00;99.90
13296;DHT22;6716;51.086;-0.302;2022-10-26T07:10:35;11.00;99.90
13296;DHT22;6716;51.086;-0.302;2022-10-26T07:13:07;11.00;99.90
13296;DHT22;6716;51.086;-0.302;2022-10-26T07:15:33;11.00;99.90
13296;DHT22;6716;51.086;-0.302;2022-10-26T07:18:00;11.00;99.90
13296;DHT22;6716;51.086;-0.302;2022-10-26T07:20:27;11.10;99.90
13296;DHT22;6716;51.086;-0.302;2022-10-26T07:22:54;11.00;99.90
13296;DHT22;6716;51.086;-0.302;2022-10-26T07:25:21;11.00;99.90
13296;DHT22;6716;51.086;-0.302;2022-10-26T07:27:48;11.00;99.90
13296;DHT22;6716;51.086;-0.302;2022-10-26T07:30:14;10.90;99.90
13296;DHT22;6716;51.086;-0.302;2022-10-26T07:32:40;10.90;99.90
13296;DHT22;6716;51.086;-0.302;2022-10-26T07:35:06;11.00;99.90
13296;DHT22;6716;51.086;-0.302;2022-10-26T07:37:32;10.90;99.90
13296;DHT22;6716;51.086;-0.302;2022-10-26T07:39:58;11.00;99.90
13296;DHT22;6716;51.086;-0.302;2022-10-26T07:42:24;11.00;99.90
13296;DHT22;6716;51.086;-0.302;2022-10-26T07:44:50;10.90;99.90
13296;DHT22;6716;51.086;-0.302;2022-10-26T07:47:16;11.00;99.90
13296;DHT22;6716;51.086;-0.302;2022-10-26T07:49:41;11.10;99.90
13296;DHT22;6716;51.086;-0.302;2022-10-26T07:52:08;11.10;99.90
13296;DHT22;6716;51.086;-0.302;2022-10-26T07:54:35;11.10;99.90
13296;DHT22;6716;51.086;-0.302;2022-10-26T07:57:01;11.10;99.90
13296;DHT22;6716;51.086;-0.302;2022-10-26T07:59:30;11.00;99.90
13296;DHT22;6716;51.086;-0.302;2022-10-26T08:01:56;11.70;99.90
13296;DHT22;6716;51.086;-0.302;2022-10-26T08:04:22;11.00;99.90
13296;DHT22;6716;51.086;-0.302;2022-10-26T08:06:48;11.00;99.90
13296;DHT22;6716;51.086;-0.302;2022-10-26T08:09:14;11.00;99.90
13296;DHT22;6716;51.086;-0.302;2022-10-26T08:11:40;11.00;99.90
13296;DHT22;6716;51.086;-0.302;2022-10-26T08:14:06;11.10;99.90
13296;DHT22;6716;51.086;-0.302;2022-10-26T08:16:32;11.70;99.90
13296;DHT22;6716;51.086;-0.302;2022-10-26T08:18:59;11.10;99.90
13296;DHT22;6716;51.086;-0.302;2022-10-26T08:21:25;11.00;99.90
13296;DHT22;6716;51.086;-0.302;2022-10-26T08:23:51;11.10;99.90
13296;DHT22;6716;51.086;-0.302;2022-10-26T08:26:17;11.10;99.90
13296;DHT22;6716;51.086;-0.302;2022-10-26T08:28:43;11.10;99.90
13296;DHT22;6716;51.086;-0.302;2022-10-26T08:31:08;11.00;99.90
13296;DHT22;6716;51.086;-0.302;2022-10-26T08:33:34;11.10;99.90
13296;DHT22;6716;51.086;-0.302;2022-10-26T08:36:03;11.30;99.90
13296;DHT22;6716;51.086;-0.302;2022-10-26T08:38:29;11.30;99.90
13296;DHT22;6716;51.086;-0.302;2022-10-26T08:40:56;11.30;99.90
13296;DHT22;6716;51.086;-0.302;2022-10-26T08:43:27;11.20;99.90
13296;DHT22;6716;51.086;-0.302;2022-10-26T08:45:55;11.10;99.90
13296;DHT22;6716;51.086;-0.302;2022-10-26T08:48:26;11.10;99.90
13296;DHT22;6716;51.086;-0.302;2022-10-26T08:51:03;11.20;99.90
13296;DHT22;6716;51.086;-0.302;2022-10-26T08:53:40;11.20;99.90
13296;DHT22;6716;51.086;-0.302;2022-10-26T08:56:21;11.30;99.90
13296;DHT22;6716;51.086;-0.302;2022-10-26T08:58:56;11.20;99.90
13296;DHT22;6716;51.086;-0.302;2022-10-26T09:01:24;11.20;99.90
13296;DHT22;6716;51.086;-0.302;2022-10-26T09:03:50;11.30;99.90
13296;DHT22;6716;51.086;-0.302;2022-10-26T09:06:23;11.20;99.90
13296;DHT22;6716;51.086;-0.302;2022-10-26T09:09:45;11.20;99.90
13296;DHT22;6716;51.086;-0.302;2022-10-26T09:14:48;11.20;99.90
13296;DHT22;6716;51.086;-0.302;2022-10-26T09:17:22;11.30;99.90
13296;DHT22;6716;51.086;-0.302;2022-10-26T09:20:10;11.30;99.90
13296;DHT22;6716;51.086;-0.302;2022-10-26T09:25:22;11.30;99.90
13296;DHT22;6716;51.086;-0.302;2022-10-26T09:27:55;11.30;99.90
13296;DHT22;6716;51.086;-0.302;2022-10-26T09:30:23;11.30;99.90
13296;DHT22;6716;51.086;-0.302;2022-10-26T09:32:52;11.10;99.90
13296;DHT22;6716;51.086;-0.302;2022-10-26T09:35:24;11.30;99.90
13296;DHT22;6716;51.086;-0.302;2022-10-26T09:38:12;11.20;99.90
13296;DHT22;6716;51.086;-0.302;2022-10-26T09:41:28;11.00;99.90
13296;DHT22;6716;51.086;-0.302;2022-10-26T09:46:17;11.30;99.90
13296;DHT22;6716;51.086;-0.302;2022-10-26T09:48:53;11.30;99.90
13296;DHT22;6716;51.086;-0.302;2022-10-26T09:51:20;11.30;99.90
13296;DHT22;6716;51.086;-0.302;2022-10-26T09:53:53;11.30;99.90
13296;DHT22;6716;51.086;-0.302;2022-10-26T09:56:21;11.30;99.90
13296;DHT22;6716;51.086;-0.302;2022-10-26T09:58:55;11.30;99.90
13296;DHT22;6716;51.086;-0.302;2022-10-26T10:06:39;11.40;99.90
13296;DHT22;6716;51.086;-0.302;2022-10-26T10:09:22;11.40;99.90
13296;DHT22;6716;51.086;-0.302;2022-10-26T10:11:55;11.40;99.90
13296;DHT22;6716;51.086;-0.302;2022-10-26T10:14:27;11.40;99.90
13296;DHT22;6716;51.086;-0.302;2022-10-26T10:16:55;10.10;99.90
13296;DHT22;6716;51.086;-0.302;2022-10-26T10:19:29;11.40;99.90
13296;DHT22;6716;51.086;-0.302;2022-10-26T10:22:00;11.40;99.90
13296;DHT22;6716;51.086;-0.302;2022-10-26T10:24:35;11.30;99.90
13296;DHT22;6716;51.086;-0.302;2022-10-26T10:27:02;11.40;99.90
13296;DHT22;6716;51.086;-0.302;2022-10-26T10:29:40;11.40;99.90
13296;DHT22;6716;51.086;-0.302;2022-10-26T10:32:14;11.50;99.90
13296;DHT22;6716;51.086;-0.302;2022-10-26T10:34:40;11.40;99.90
13296;DHT22;6716;51.086;-0.302;2022-10-26T10:40:18;11.40;99.90
13296;DHT22;6716;51.086;-0.302;2022-10-26T10:42:49;11.50;99.90
13296;DHT22;6716;51.086;-0.302;2022-10-26T10:45:24;11.40;99.90
13296;DHT22;6716;51.086;-0.302;2022-10-26T10:53:20;11.50;99.90
13296;DHT22;6716;51.086;-0.302;2022-10-26T10:58:32;11.60;99.90
13296;DHT22;6716;51.086;-0.302;2022-10-26T11:01:00;11.50;99.90
13296;DHT22;6716;51.086;-0.302;2022-10-26T11:04:33;11.50;99.90
13296;DHT22;6716;51.086;-0.302;2022-10-26T11:06:31;11.50;99.90
13296;DHT22;6716;51.086;-0.302;2022-10-26T11:09:12;11.50;99.90
13296;DHT22;6716;51.086;-0.302;2022-10-26T11:11:56;12.40;99.90
13296;DHT22;6716;51.086;-0.302;2022-10-26T11:17:26;11.40;99.90
13296;DHT22;6716;51.086;-0.302;2022-10-26T11:20:15;11.50;99.90
13296;DHT22;6716;51.086;-0.302;2022-10-26T11:23:19;11.40;99.90
13296;DHT22;6716;51.086;-0.302;2022-10-26T11:31:17;11.50;99.90
13296;DHT22;6716;51.086;-0.302;2022-10-26T11:33:53;11.40;99.90
13296;DHT22;6716;51.086;-0.302;2022-10-26T11:36:23;11.40;99.90
13296;DHT22;6716;51.086;-0.302;2022-10-26T11:44:30;11.40;99.90
13296;DHT22;6716;51.086;-0.302;2022-10-26T11:47:01;11.40;99.90
13296;DHT22;6716;51.086;-0.302;2022-10-26T11:49:46;11.40;99.90
13296;DHT22;6716;51.086;-0.302;2022-10-26T11:52:38;11.40;99.90
13296;DHT22;6716;51.086;-0.302;2022-10-26T11:55:09;11.20;99.90
13296;DHT22;6716;51.086;-0.302;2022-10-26T11:57:37;11.30;99.90
13296;DHT22;6716;51.086;-0.302;2022-10-26T12:00:06;11.20;99.90
13296;DHT22;6716;51.086;-0.302;2022-10-26T12:02:39;11.30;99.90
13296;DHT22;6716;51.086;-0.302;2022-10-26T12:07:34;11.30;99.90
13296;DHT22;6716;51.086;-0.302;2022-10-26T12:10:02;11.40;99.90
13296;DHT22;6716;51.086;-0.302;2022-10-26T12:12:45;11.40;99.90
13296;DHT22;6716;51.086;-0.302;2022-10-26T12:18:08;11.30;99.90
13296;DHT22;6716;51.086;-0.302;2022-10-26T12:20:58;13.00;99.90
13296;DHT22;6716;51.086;-0.302;2022-10-26T12:23:33;11.30;99.90
13296;DHT22;6716;51.086;-0.302;2022-10-26T12:29:12;11.50;99.90
13296;DHT22;6716;51.086;-0.302;2022-10-26T12:34:10;11.50;99.90
13296;DHT22;6716;51.086;-0.302;2022-10-26T12:44:40;11.50;99.90
13296;DHT22;6716;51.086;-0.302;2022-10-26T12:50:00;11.50;99.90
13296;DHT22;6716;51.086;-0.302;2022-10-26T12:58:32;11.60;99.90
13296;DHT22;6716;51.086;-0.302;2022-10-26T13:01:10;11.60;99.90
13296;DHT22;6716;51.086;-0.302;2022-10-26T13:08:58;11.60;99.90
13296;DHT22;6716;51.086;-0.302;2022-10-26T13:11:45;11.60;99.90
13296;DHT22;6716;51.086;-0.302;2022-10-26T13:14:26;11.50;99.90
13296;DHT22;6716;51.086;-0.302;2022-10-26T13:16:52;10.70;99.90
13296;DHT22;6716;51.086;-0.302;2022-10-26T13:19:30;11.60;99.90
13296;DHT22;6716;51.086;-0.302;2022-10-26T13:21:58;11.70;99.90
13296;DHT22;6716;51.086;-0.302;2022-10-26T13:24:27;11.70;99.90
13296;DHT22;6716;51.086;-0.302;2022-10-26T13:32:41;11.90;99.90
13296;DHT22;6716;51.086;-0.302;2022-10-26T13:35:13;11.90;99.90
13296;DHT22;6716;51.086;-0.302;2022-10-26T13:37:45;11.90;99.90
13296;DHT22;6716;51.086;-0.302;2022-10-26T13:40:32;11.80;99.90
13296;DHT22;6716;51.086;-0.302;2022-10-26T13:43:06;12.00;99.90
13296;DHT22;6716;51.086;-0.302;2022-10-26T13:45:51;11.90;99.90
13296;DHT22;6716;51.086;-0.302;2022-10-26T13:50:56;10.90;99.90
13296;DHT22;6716;51.086;-0.302;2022-10-26T13:53:37;11.20;99.90
13296;DHT22;6716;51.086;-0.302;2022-10-26T13:56:28;12.00;99.90
13296;DHT22;6716;51.086;-0.302;2022-10-26T14:01:25;12.00;99.90
13296;DHT22;6716;51.086;-0.302;2022-10-26T14:03:53;12.00;99.90
13296;DHT22;6716;51.086;-0.302;2022-10-26T14:09:00;12.10;99.90
13296;DHT22;6716;51.086;-0.302;2022-10-26T14:11:35;12.10;99.90
13296;DHT22;6716;51.086;-0.302;2022-10-26T14:14:03;12.00;99.90
13296;DHT22;6716;51.086;-0.302;2022-10-26T14:16:35;12.00;99.90
13296;DHT22;6716;51.086;-0.302;2022-10-26T14:19:01;12.10;99.90
13296;DHT22;6716;51.086;-0.302;2022-10-26T14:21:27;12.00;99.90
13296;DHT22;6716;51.086;-0.302;2022-10-26T14:23:57;12.00;99.90
13296;DHT22;6716;51.086;-0.302;2022-10-26T14:26:29;12.00;99.90
13296;DHT22;6716;51.086;-0.302;2022-10-26T14:29:00;12.30;99.90
13296;DHT22;6716;51.086;-0.302;2022-10-26T14:31:31;12.00;99.90
13296;DHT22;6716;51.086;-0.302;2022-10-26T14:33:59;11.80;99.90
13296;DHT22;6716;51.086;-0.302;2022-10-26T14:36:37;12.10;99.90
13296;DHT22;6716;51.086;-0.302;2022-10-26T14:39:44;12.10;99.90
13296;DHT22;6716;51.086;-0.302;2022-10-26T14:42:28;12.10;99.90
13296;DHT22;6716;51.086;-0.302;2022-10-26T14:44:56;12.10;99.90
13296;DHT22;6716;51.086;-0.302;2022-10-26T14:47:32;12.10;99.90
13296;DHT22;6716;51.086;-0.302;2022-10-26T14:50:03;12.20;99.90
13296;DHT22;6716;51.086;-0.302;2022-10-26T14:52:32;12.10;99.90
13296;DHT22;6716;51.086;-0.302;2022-10-26T14:55:11;12.10;99.90
13296;DHT22;6716;51.086;-0.302;2022-10-26T14:57:39;12.20;99.90
13296;DHT22;6716;51.086;-0.302;2022-10-26T15:00:16;12.20;99.90
13296;DHT22;6716;51.086;-0.302;2022-10-26T15:02:47;12.20;99.90
13296;DHT22;6716;51.086;-0.302;2022-10-26T15:05:25;12.10;99.90
13296;DHT22;6716;51.086;-0.302;2022-10-26T15:07:53;12.10;99.90
13296;DHT22;6716;51.086;-0.302;2022-10-26T15:15:48;12.20;99.90
13296;DHT22;6716;51.086;-0.302;2022-10-26T15:18:24;12.20;99.90
13296;DHT22;6716;51.086;-0.302;2022-10-26T15:20:51;12.20;99.90
13296;DHT22;6716;51.086;-0.302;2022-10-26T15:23:21;12.20;99.90
13296;DHT22;6716;51.086;-0.302;2022-10-26T15:26:00;12.20;99.90
13296;DHT22;6716;51.086;-0.302;2022-10-26T15:28:36;12.20;99.90
13296;DHT22;6716;51.086;-0.302;2022-10-26T15:33:40;12.40;99.90
13296;DHT22;6716;51.086;-0.302;2022-10-26T15:36:11;12.40;99.90
13296;DHT22;6716;51.086;-0.302;2022-10-26T15:38:37;12.40;99.90
13296;DHT22;6716;51.086;-0.302;2022-10-26T15:41:05;12.30;99.90
13296;DHT22;6716;51.086;-0.302;2022-10-26T15:43:36;12.20;99.90
13296;DHT22;6716;51.086;-0.302;2022-10-26T15:46:03;12.20;99.90
13296;DHT22;6716;51.086;-0.302;2022-10-26T15:48:30;10.50;99.90
13296;DHT22;6716;51.086;-0.302;2022-10-26T15:50:59;12.20;99.90
13296;DHT22;6716;51.086;-0.302;2022-10-26T15:53:27;11.00;99.90
13296;DHT22;6716;51.086;-0.302;2022-10-26T15:55:58;12.10;99.90
13296;DHT22;6716;51.086;-0.302;2022-10-26T15:58:26;11.90;99.90
13296;DHT22;6716;51.086;-0.302;2022-10-26T16:00:53;11.80;99.90
13296;DHT22;6716;51.086;-0.302;2022-10-26T16:03:24;11.90;99.90
13296;DHT22;6716;51.086;-0.302;2022-10-26T16:05:55;11.90;99.90
13296;DHT22;6716;51.086;-0.302;2022-10-26T16:08:22;11.80;99.90
13296;DHT22;6716;51.086;-0.302;2022-10-26T16:10:48;12.00;99.90
13296;DHT22;6716;51.086;-0.302;2022-10-26T16:13:15;11.80;99.90
13296;DHT22;6716;51.086;-0.302;2022-10-26T16:15:42;11.90;99.90
13296;DHT22;6716;51.086;-0.302;2022-10-26T16:18:08;11.90;99.90
13296;DHT22;6716;51.086;-0.302;2022-10-26T16:20:34;11.90;99.90
13296;DHT22;6716;51.086;-0.302;2022-10-26T16:23:00;11.90;99.90
13296;DHT22;6716;51.086;-0.302;2022-10-26T16:25:33;11.80;99.90
13296;DHT22;6716;51.086;-0.302;2022-10-26T16:28:00;11.80;99.90
13296;DHT22;6716;51.086;-0.302;2022-10-26T16:30:28;11.70;99.90
13296;DHT22;6716;51.086;-0.302;2022-10-26T16:32:55;11.70;99.90
13296;DHT22;6716;51.086;-0.302;2022-10-26T16:35:21;11.80;99.90
13296;DHT22;6716;51.086;-0.302;2022-10-26T16:37:47;11.70;99.90
13296;DHT22;6716;51.086;-0.302;2022-10-26T16:40:13;11.70;99.90
13296;DHT22;6716;51.086;-0.302;2022-10-26T16:42:39;11.70;99.90
13296;DHT22;6716;51.086;-0.302;2022-10-26T16:45:12;11.60;99.90
13296;DHT22;6716;51.086;-0.302;2022-10-26T16:47:39;11.60;99.90
13296;DHT22;6716;51.086;-0.302;2022-10-26T16:50:07;12.20;99.90
13296;DHT22;6716;51.086;-0.302;2022-10-26T16:52:34;11.70;99.90
13296;DHT22;6716;51.086;-0.302;2022-10-26T16:55:00;13.70;99.90
13296;DHT22;6716;51.086;-0.302;2022-10-26T16:57:26;11.60;99.90
13296;DHT22;6716;51.086;-0.302;2022-10-26T16:59:52;11.70;99.90
13296;DHT22;6716;51.086;-0.302;2022-10-26T17:02:22;11.70;99.90
13296;DHT22;6716;51.086;-0.302;2022-10-26T17:04:48;11.80;99.90
13296;DHT22;6716;51.086;-0.302;2022-10-26T17:07:15;11.80;99.90
13296;DHT22;6716;51.086;-0.302;2022-10-26T17:09:41;11.10;99.90
13296;DHT22;6716;51.086;-0.302;2022-10-26T17:12:07;11.60;99.90
13296;DHT22;6716;51.086;-0.302;2022-10-26T17:14:36;11.70;99.90
13296;DHT22;6716;51.086;-0.302;2022-10-26T17:17:02;11.60;99.90
13296;DHT22;6716;51.086;-0.302;2022-10-26T17:19:29;11.60;99.90
13296;DHT22;6716;51.086;-0.302;2022-10-26T17:21:55;11.60;99.90
13296;DHT22;6716;51.086;-0.302;2022-10-26T17:24:21;11.60;99.90
13296;DHT22;6716;51.086;-0.302;2022-10-26T17:26:47;11.50;99.90
13296;DHT22;6716;51.086;-0.302;2022-10-26T17:29:14;11.50;99.90
13296;DHT22;6716;51.086;-0.302;2022-10-26T17:31:40;11.60;99.90
13296;DHT22;6716;51.086;-0.302;2022-10-26T17:34:06;11.10;99.90
13296;DHT22;6716;51.086;-0.302;2022-10-26T17:36:32;11.80;99.90
13296;DHT22;6716;51.086;-0.302;2022-10-26T17:38:58;11.60;99.90
13296;DHT22;6716;51.086;-0.302;2022-10-26T17:41:25;11.60;99.90
13296;DHT22;6716;51.086;-0.302;2022-10-26T17:43:54;11.70;99.90
13296;DHT22;6716;51.086;-0.302;2022-10-26T17:46:22;11.60;99.90
13296;DHT22;6716;51.086;-0.302;2022-10-26T17:48:55;11.60;99.90
13296;DHT22;6716;51.086;-0.302;2022-10-26T17:51:22;11.70;99.90
13296;DHT22;6716;51.086;-0.302;2022-10-26T17:53:49;11.60;99.90
13296;DHT22;6716;51.086;-0.302;2022-10-26T17:56:23;11.60;99.90
13296;DHT22;6716;51.086;-0.302;2022-10-26T17:58:56;11.60;99.90
13296;DHT22;6716;51.086;-0.302;2022-10-26T18:01:23;11.80;99.90
13296;DHT22;6716;51.086;-0.302;2022-10-26T18:03:49;11.60;99.90
13296;DHT22;6716;51.086;-0.302;2022-10-26T18:06:19;11.60;99.90
13296;DHT22;6716;51.086;-0.302;2022-10-26T18:08:45;11.70;99.90
13296;DHT22;6716;51.086;-0.302;2022-10-26T18:11:15;10.90;99.90
13296;DHT22;6716;51.086;-0.302;2022-10-26T18:13:45;11.70;99.90